Time;durP1;ratioP1;P1;durP2;ratioP2;P2;SDS_P1;SDS_P2;PMS_P1;PMS_P2;Temp;Humidity;BMP_temperature;BMP_pressure;BME280_temperature;BME280_humidity;BME280_pressure;Samples;Min_cycle;Max_cycle;Signal;HPM_P1;HPM_P2
2023/11/22 00:01:11;;;;;;;6.13;3.63;;;;;;;;;;10282550;28;20031;-60
2023/11/22 00:06:11;;;;;;;5.05;3.25;;;;;;;;;;10284354;28;20070;-59
2023/11/22 00:11:13;;;;;;;7.03;3.35;;;;;;;;;;10273620;28;20031;-60
2023/11/22 00:16:14;;;;;;;5.38;2.80;;;;;;;;;;10292013;28;20034;-60
2023/11/22 00:21:23;;;;;;;7.47;3.70;;;;;;;;;;10287427;28;20027;-60
2023/11/22 00:26:32;;;;;;;8.32;3.20;;;;;;;;;;10284881;28;20034;-60
2023/11/22 00:31:33;;;;;;;5.43;3.20;;;;;;;;;;10278813;28;20026;-60
2023/11/22 00:36:33;;;;;;;6.28;3.30;;;;;;;;;;10286373;28;20026;-61
2023/11/22 00:41:35;;;;;;;4.80;2.90;;;;;;;;;;10285417;28;20128;-60
2023/11/22 00:46:39;;;;;;;5.68;3.20;;;;;;;;;;10279297;28;20089;-60
2023/11/22 00:51:40;;;;;;;6.55;3.25;;;;;;;;;;10285833;28;20042;-61
2023/11/22 00:56:40;;;;;;;3.72;2.67;;;;;;;;;;10284372;28;20027;-61
2023/11/22 01:01:41;;;;;;;4.05;2.72;;;;;;;;;;10285070;28;20118;-60
2023/11/22 01:06:42;;;;;;;3.47;2.80;;;;;;;;;;10275146;28;20035;-61
2023/11/22 01:11:44;;;;;;;5.65;2.90;;;;;;;;;;10284853;28;20109;-62
2023/11/22 01:16:44;;;;;;;4.30;2.70;;;;;;;;;;10283644;28;20038;-61
2023/11/22 01:21:45;;;;;;;3.63;2.80;;;;;;;;;;10284880;28;20047;-60
2023/11/22 01:26:45;;;;;;;6.95;2.75;;;;;;;;;;10284077;28;20061;-60
2023/11/22 01:31:47;;;;;;;4.75;2.92;;;;;;;;;;10271219;28;20035;-60
2023/11/22 01:36:50;;;;;;;4.15;2.60;;;;;;;;;;10271317;28;20487;-60
2023/11/22 01:41:50;;;;;;;5.13;2.90;;;;;;;;;;10280831;28;20038;-60
2023/11/22 01:46:51;;;;;;;3.03;2.70;;;;;;;;;;10287468;28;20046;-60
2023/11/22 01:51:51;;;;;;;4.20;3.20;;;;;;;;;;10283511;28;20078;-60
2023/11/22 01:56:53;;;;;;;5.45;2.80;;;;;;;;;;10281910;28;20529;-60
2023/11/22 02:01:54;;;;;;;4.20;2.78;;;;;;;;;;10277216;28;20533;-60
2023/11/22 02:06:55;;;;;;;2.88;2.33;;;;;;;;;;10268759;28;20038;-60
2023/11/22 02:11:56;;;;;;;4.20;2.40;;;;;;;;;;10283381;28;20038;-60
2023/11/22 02:16:58;;;;;;;4.10;2.70;;;;;;;;;;10283564;28;20088;-60
2023/11/22 02:21:59;;;;;;;6.05;2.60;;;;;;;;;;10280947;28;20041;-60
2023/11/22 02:27:00;;;;;;;3.92;3.00;;;;;;;;;;10282816;28;20034;-61
2023/11/22 02:32:00;;;;;;;2.78;2.38;;;;;;;;;;10293603;28;20054;-61
2023/11/22 02:37:01;;;;;;;4.53;2.60;;;;;;;;;;10288241;28;20034;-61
2023/11/22 02:42:03;;;;;;;5.50;2.75;;;;;;;;;;10277585;28;20055;-61
2023/11/22 02:47:04;;;;;;;4.70;2.83;;;;;;;;;;10279180;28;20370;-62
2023/11/22 02:52:05;;;;;;;3.65;2.50;;;;;;;;;;10281344;28;20078;-61
2023/11/22 02:57:06;;;;;;;4.18;2.70;;;;;;;;;;10274768;28;20034;-61
2023/11/22 03:02:07;;;;;;;2.55;2.08;;;;;;;;;;10289403;28;20031;-62
2023/11/22 03:07:08;;;;;;;2.97;2.20;;;;;;;;;;10287429;28;20037;-62
2023/11/22 03:12:08;;;;;;;4.53;2.50;;;;;;;;;;10282697;28;20474;-61
2023/11/22 03:17:09;;;;;;;2.53;2.20;;;;;;;;;;10289527;28;20038;-62
2023/11/22 03:22:09;;;;;;;3.17;2.40;;;;;;;;;;10279245;28;20039;-60
2023/11/22 03:27:10;;;;;;;3.53;2.50;;;;;;;;;;10287779;28;20479;-60
2023/11/22 03:32:11;;;;;;;7.03;2.58;;;;;;;;;;10297480;28;20478;-59
2023/11/22 03:37:12;;;;;;;2.88;2.30;;;;;;;;;;10299536;28;20546;-62
2023/11/22 03:42:12;;;;;;;3.50;2.40;;;;;;;;;;10284674;28;20495;-60
2023/11/22 03:47:15;;;;;;;3.25;2.30;;;;;;;;;;10287469;28;20093;-63
2023/11/22 03:52:15;;;;;;;2.80;2.50;;;;;;;;;;10288128;28;20053;-63
2023/11/22 03:57:16;;;;;;;2.95;2.33;;;;;;;;;;10285638;28;20042;-62
2023/11/22 04:02:17;;;;;;;3.15;2.20;;;;;;;;;;10280630;28;20375;-62
2023/11/22 04:07:18;;;;;;;3.20;2.33;;;;;;;;;;10287223;28;20038;-61
2023/11/22 04:12:19;;;;;;;3.03;2.30;;;;;;;;;;10285964;28;20030;-61
2023/11/22 04:17:20;;;;;;;4.65;2.58;;;;;;;;;;10287412;28;20414;-61
2023/11/22 04:22:20;;;;;;;3.45;2.33;;;;;;;;;;10286778;28;20042;-62
2023/11/22 04:27:21;;;;;;;2.67;2.13;;;;;;;;;;10286028;28;20041;-61
2023/11/22 04:32:22;;;;;;;3.72;2.17;;;;;;;;;;10286366;28;20039;-62
2023/11/22 04:37:26;;;;;;;2.30;2.10;;;;;;;;;;10276952;28;20031;-62
2023/11/22 04:42:27;;;;;;;4.78;2.10;;;;;;;;;;10285591;28;20031;-62
2023/11/22 04:47:27;;;;;;;2.70;2.28;;;;;;;;;;10284517;28;20478;-62
2023/11/22 04:52:28;;;;;;;2.67;2.22;;;;;;;;;;10275268;28;20043;-59
2023/11/22 04:57:29;;;;;;;1.90;1.75;;;;;;;;;;10285412;28;20038;-59
2023/11/22 05:02:29;;;;;;;2.85;2.08;;;;;;;;;;10277574;28;20035;-60
2023/11/22 05:07:30;;;;;;;4.28;1.92;;;;;;;;;;10271471;28;20031;-60
2023/11/22 05:12:31;;;;;;;2.78;2.15;;;;;;;;;;10282589;28;20034;-60
2023/11/22 05:17:32;;;;;;;2.10;1.90;;;;;;;;;;10289440;28;20077;-62
2023/11/22 05:22:32;;;;;;;3.80;1.98;;;;;;;;;;10293261;28;20130;-60
2023/11/22 05:27:33;;;;;;;2.15;1.95;;;;;;;;;;10276067;28;20760;-59
2023/11/22 05:32:34;;;;;;;2.20;2.00;;;;;;;;;;10278304;28;20456;-61
2023/11/22 05:37:34;;;;;;;2.60;1.92;;;;;;;;;;10284796;28;20043;-60
2023/11/22 05:42:35;;;;;;;4.97;1.90;;;;;;;;;;10283738;28;20498;-62
2023/11/22 05:47:35;;;;;;;2.30;2.08;;;;;;;;;;10282187;28;20081;-60
2023/11/22 05:52:36;;;;;;;4.32;2.10;;;;;;;;;;10268550;28;20120;-60
2023/11/22 05:57:37;;;;;;;2.35;1.80;;;;;;;;;;10285589;28;20254;-59
2023/11/22 06:02:38;;;;;;;2.10;1.88;;;;;;;;;;10282605;28;20053;-59
2023/11/22 06:07:39;;;;;;;2.22;2.03;;;;;;;;;;10281781;28;20034;-59
2023/11/22 06:12:40;;;;;;;4.25;2.88;;;;;;;;;;10288853;28;20398;-59
2023/11/22 06:17:40;;;;;;;2.20;2.00;;;;;;;;;;10301877;28;20375;-59
2023/11/22 06:22:42;;;;;;;3.58;2.00;;;;;;;;;;10282715;28;20031;-59
2023/11/22 06:27:42;;;;;;;2.17;1.90;;;;;;;;;;10290379;28;20387;-59
2023/11/22 06:32:44;;;;;;;2.47;2.08;;;;;;;;;;10293187;28;20031;-59
2023/11/22 06:37:44;;;;;;;3.05;2.08;;;;;;;;;;10288081;28;20141;-60
2023/11/22 06:42:45;;;;;;;1.73;1.50;;;;;;;;;;10289099;28;20045;-60
2023/11/22 06:47:45;;;;;;;3.88;1.90;;;;;;;;;;10302851;28;20034;-60
2023/11/22 06:52:48;;;;;;;3.42;1.88;;;;;;;;;;10289991;28;20046;-59
2023/11/22 06:57:50;;;;;;;10.65;2.38;;;;;;;;;;10297742;28;20394;-60
2023/11/22 07:02:51;;;;;;;9.07;2.42;;;;;;;;;;10279746;28;20043;-60
2023/11/22 07:07:54;;;;;;;6.38;2.67;;;;;;;;;;10289607;28;20122;-60
2023/11/22 07:12:55;;;;;;;10.32;2.25;;;;;;;;;;10286380;28;20035;-59
2023/11/22 07:17:56;;;;;;;8.68;2.60;;;;;;;;;;10278091;28;20066;-59
2023/11/22 07:22:57;;;;;;;15.23;2.88;;;;;;;;;;10288980;28;20034;-59
2023/11/22 07:27:59;;;;;;;12.95;2.65;;;;;;;;;;10289648;28;20402;-59
2023/11/22 07:32:59;;;;;;;11.63;2.67;;;;;;;;;;10289408;28;20038;-59
2023/11/22 07:38:00;;;;;;;6.97;2.60;;;;;;;;;;10289295;28;20384;-59
2023/11/22 07:43:03;;;;;;;6.13;2.25;;;;;;;;;;10288936;28;20027;-59
2023/11/22 07:48:04;;;;;;;4.82;2.30;;;;;;;;;;10288176;28;20241;-59
2023/11/22 07:53:05;;;;;;;6.85;2.28;;;;;;;;;;10288494;28;20043;-59
2023/11/22 07:58:06;;;;;;;8.45;2.42;;;;;;;;;;10288396;28;20041;-59
2023/11/22 08:03:07;;;;;;;6.40;2.65;;;;;;;;;;10288189;28;20058;-59
2023/11/22 08:08:07;;;;;;;6.00;2.40;;;;;;;;;;10288550;28;20027;-59
2023/11/22 08:13:09;;;;;;;4.65;2.40;;;;;;;;;;10287904;28;20147;-59
2023/11/22 08:18:10;;;;;;;3.38;2.25;;;;;;;;;;10286721;28;20395;-59
2023/11/22 08:23:12;;;;;;;5.22;2.17;;;;;;;;;;10286319;28;20042;-59
2023/11/22 08:28:13;;;;;;;4.78;2.17;;;;;;;;;;10271125;28;20058;-59
2023/11/22 08:33:14;;;;;;;7.38;2.53;;;;;;;;;;10281423;28;20086;-59
2023/11/22 08:38:14;;;;;;;7.40;2.75;;;;;;;;;;10280140;28;20046;-59
2023/11/22 08:43:16;;;;;;;5.68;2.40;;;;;;;;;;10278229;28;20027;-59
2023/11/22 08:48:16;;;;;;;2.65;2.10;;;;;;;;;;10255027;28;20034;-59
2023/11/22 08:53:19;;;;;;;5.15;2.00;;;;;;;;;;10253253;28;20043;-59
2023/11/22 08:58:20;;;;;;;3.75;2.25;;;;;;;;;;10268505;28;20486;-59
2023/11/22 09:03:21;;;;;;;3.83;1.88;;;;;;;;;;10275221;28;20037;-59
2023/11/22 09:08:22;;;;;;;7.75;2.10;;;;;;;;;;10280046;28;20026;-59
2023/11/22 09:13:31;;;;;;;5.45;2.30;;;;;;;;;;10273579;28;20019;-59
2023/11/22 09:18:32;;;;;;;4.53;2.33;;;;;;;;;;10273958;28;20042;-59
2023/11/22 09:23:33;;;;;;;4.50;1.90;;;;;;;;;;10283016;28;20034;-59
2023/11/22 09:28:34;;;;;;;3.42;2.13;;;;;;;;;;10275173;28;20514;-58
2023/11/22 09:33:34;;;;;;;4.35;1.95;;;;;;;;;;10280766;28;20545;-59
2023/11/22 09:38:35;;;;;;;3.13;2.08;;;;;;;;;;10251625;28;20086;-59
2023/11/22 09:43:43;;;;;;;4.28;2.13;;;;;;;;;;10274711;28;20482;-59
2023/11/22 09:48:48;;;;;;;2.60;1.90;;;;;;;;;;10278423;28;20041;-59
2023/11/22 09:53:56;;;;;;;4.47;1.92;;;;;;;;;;10275505;28;20039;-59
2023/11/22 09:59:00;;;;;;;3.72;1.63;;;;;;;;;;10285796;28;20034;-58
2023/11/22 10:04:01;;;;;;;3.53;1.73;;;;;;;;;;10296216;28;20123;-58
2023/11/22 10:09:07;;;;;;;3.58;2.50;;;;;;;;;;10289945;28;20019;-58
2023/11/22 10:14:08;;;;;;;3.17;1.55;;;;;;;;;;10297858;28;20027;-58
2023/11/22 10:19:10;;;;;;;5.65;2.20;;;;;;;;;;10302602;28;20022;-58
2023/11/22 10:24:21;;;;;;;2.92;2.00;;;;;;;;;;10288208;28;20073;-58
2023/11/22 10:29:22;;;;;;;1.85;1.55;;;;;;;;;;10285593;28;20050;-59
2023/11/22 10:34:24;;;;;;;3.15;1.85;;;;;;;;;;10281254;28;20042;-58
2023/11/22 10:39:26;;;;;;;4.03;2.05;;;;;;;;;;10271089;28;20301;-58
2023/11/22 10:44:26;;;;;;;4.53;1.75;;;;;;;;;;10289114;28;20111;-58
2023/11/22 10:49:27;;;;;;;3.17;1.50;;;;;;;;;;10305558;28;20039;-58
2023/11/22 10:54:29;;;;;;;4.50;2.08;;;;;;;;;;10281953;28;20043;-59
2023/11/22 10:59:31;;;;;;;3.95;1.70;;;;;;;;;;10272704;28;20024;-59
2023/11/22 11:04:40;;;;;;;3.08;1.90;;;;;;;;;;10276645;28;20031;-58
2023/11/22 11:09:40;;;;;;;;;;;;;;;;;;10259259;28;20337;-58
2023/11/22 11:14:41;;;;;;;2.08;1.63;;;;;;;;;;10270460;28;20149;-59
2023/11/22 11:19:42;;;;;;;1.73;1.60;;;;;;;;;;10288734;28;20110;-58
2023/11/22 11:24:47;;;;;;;3.20;1.83;;;;;;;;;;10284080;28;20042;-59
2023/11/22 11:29:48;;;;;;;2.03;1.80;;;;;;;;;;10283729;28;20513;-58
2023/11/22 11:34:50;;;;;;;2.03;1.80;;;;;;;;;;10279240;28;20055;-58
2023/11/22 11:39:50;;;;;;;3.97;1.90;;;;;;;;;;10283012;28;20027;-59
2023/11/22 11:45:12;;;;;;;3.67;1.90;;;;;;;;;;10268473;28;20094;-58
2023/11/22 11:50:12;;;;;;;2.95;1.92;;;;;;;;;;10301858;23;20055;-62
2023/11/22 11:55:13;;;;;;;4.93;2.10;;;;;;;;;;10253087;28;20031;-62
2023/11/22 12:00:14;;;;;;;2.45;1.63;;;;;;;;;;10254871;28;20038;-62
2023/11/22 12:05:15;;;;;;;1.70;1.60;;;;;;;;;;10253935;28;20474;-60
2023/11/22 12:10:15;;;;;;;3.03;1.70;;;;;;;;;;10260054;28;20039;-60
2023/11/22 12:15:16;;;;;;;2.42;1.77;;;;;;;;;;10267707;28;20467;-61
2023/11/22 12:20:21;;;;;;;2.05;1.80;;;;;;;;;;10247483;28;20023;-61
2023/11/22 12:25:21;;;;;;;2.05;1.45;;;;;;;;;;10260948;28;20182;-63
2023/11/22 12:30:35;;;;;;;2.38;1.70;;;;;;;;;;10251197;28;20210;-60
2023/11/22 12:35:36;;;;;;;1.48;1.33;;;;;;;;;;10259838;28;20073;-62
2023/11/22 12:40:37;;;;;;;2.55;1.75;;;;;;;;;;10252856;28;20155;-61
2023/11/22 12:45:38;;;;;;;4.28;2.13;;;;;;;;;;10243094;29;20035;-60
2023/11/22 12:50:39;;;;;;;1.95;1.80;;;;;;;;;;10244722;29;20380;-60
2023/11/22 12:55:49;;;;;;;1.98;1.75;;;;;;;;;;10241926;29;20034;-60
2023/11/22 13:00:57;;;;;;;2.55;1.75;;;;;;;;;;10244452;28;20070;-61
2023/11/22 13:05:58;;;;;;;;;;;;;;;;;;10247005;28;20563;-60
2023/11/22 13:10:59;;;;;;;4.10;1.83;;;;;;;;;;10244454;28;20085;-63
2023/11/22 13:16:00;;;;;;;1.63;1.48;;;;;;;;;;10242110;28;20474;-61
2023/11/22 13:21:01;;;;;;;2.67;1.42;;;;;;;;;;10245394;29;20035;-61
2023/11/22 13:26:02;;;;;;;4.00;1.92;;;;;;;;;;10244269;28;20101;-60
2023/11/22 13:31:04;;;;;;;5.78;1.73;;;;;;;;;;10244203;28;20137;-60
2023/11/22 13:36:05;;;;;;;1.73;1.60;;;;;;;;;;10244506;29;20111;-61
2023/11/22 13:41:06;;;;;;;1.60;1.50;;;;;;;;;;10244489;28;20035;-60
2023/11/22 13:46:10;;;;;;;1.77;1.60;;;;;;;;;;10241581;28;20083;-61
2023/11/22 13:51:11;;;;;;;5.32;1.80;;;;;;;;;;10251853;28;20050;-62
2023/11/22 13:56:11;;;;;;;1.67;1.58;;;;;;;;;;10242949;28;20035;-61
2023/11/22 14:01:16;;;;;;;2.75;2.05;;;;;;;;;;10240543;28;20031;-62
2023/11/22 14:06:17;;;;;;;2.88;2.03;;;;;;;;;;10240147;28;20023;-61
2023/11/22 14:11:18;;;;;;;4.50;1.80;;;;;;;;;;10262483;28;20030;-62
2023/11/22 14:16:19;;;;;;;7.70;1.63;;;;;;;;;;10250432;28;20300;-62
2023/11/22 14:21:19;;;;;;;10.35;1.88;;;;;;;;;;10258574;28;20270;-61
2023/11/22 14:26:20;;;;;;;3.80;2.00;;;;;;;;;;10256210;28;20386;-62
2023/11/22 14:31:20;;;;;;;5.13;1.60;;;;;;;;;;10271995;28;20096;-66
2023/11/22 14:36:21;;;;;;;1.50;1.40;;;;;;;;;;10257408;28;20034;-63
2023/11/22 14:41:22;;;;;;;2.60;1.83;;;;;;;;;;10259739;28;20522;-62
2023/11/22 14:46:23;;;;;;;2.45;1.60;;;;;;;;;;10256134;28;20033;-61
2023/11/22 14:51:24;;;;;;;7.95;1.65;;;;;;;;;;10249317;28;20066;-61
2023/11/22 14:56:24;;;;;;;3.80;1.80;;;;;;;;;;10254928;28;20034;-62
2023/11/22 15:01:26;;;;;;;5.38;1.88;;;;;;;;;;10252184;28;20039;-61
2023/11/22 15:06:26;;;;;;;4.65;1.67;;;;;;;;;;10256383;28;20027;-61
2023/11/22 15:11:27;;;;;;;2.15;1.67;;;;;;;;;;10254437;28;20031;-60
2023/11/22 15:16:27;;;;;;;3.53;1.55;;;;;;;;;;10247310;28;20031;-60
2023/11/22 15:21:28;;;;;;;1.80;1.50;;;;;;;;;;10247283;28;20035;-61
2023/11/22 15:26:29;;;;;;;4.15;1.48;;;;;;;;;;10243105;28;20023;-62
2023/11/22 15:31:30;;;;;;;1.85;1.60;;;;;;;;;;10243082;29;20467;-61
2023/11/22 15:36:32;;;;;;;1.83;1.40;;;;;;;;;;10240801;28;20107;-60
2023/11/22 15:41:32;;;;;;;4.05;1.60;;;;;;;;;;10243216;29;20027;-61
2023/11/22 15:46:34;;;;;;;1.98;1.40;;;;;;;;;;10244951;29;20376;-61
2023/11/22 15:51:36;;;;;;;3.83;1.92;;;;;;;;;;10247750;29;20042;-61
2023/11/22 15:56:36;;;;;;;3.25;1.65;;;;;;;;;;10245279;29;20256;-61
2023/11/22 16:01:37;;;;;;;1.92;1.65;;;;;;;;;;10245850;29;20031;-62
2023/11/22 16:06:38;;;;;;;2.75;1.83;;;;;;;;;;10247554;29;20050;-61
2023/11/22 16:11:39;;;;;;;2.10;1.38;;;;;;;;;;10245689;28;20023;-62
2023/11/22 16:16:40;;;;;;;2.00;1.63;;;;;;;;;;10247059;28;20431;-61
2023/11/22 16:21:40;;;;;;;6.57;2.40;;;;;;;;;;10245586;29;20479;-60
2023/11/22 16:26:41;;;;;;;4.47;2.03;;;;;;;;;;10244474;29;20023;-61
2023/11/22 16:31:41;;;;;;;5.15;2.50;;;;;;;;;;10240229;29;20086;-65
2023/11/22 16:36:42;;;;;;;6.47;2.17;;;;;;;;;;10243091;29;20044;-61
2023/11/22 16:41:42;;;;;;;4.07;1.88;;;;;;;;;;10241013;29;20098;-60
2023/11/22 16:46:45;;;;;;;7.63;1.90;;;;;;;;;;10241740;29;20039;-61
2023/11/22 16:51:47;;;;;;;2.47;1.83;;;;;;;;;;10238740;28;20051;-67
2023/11/22 16:56:48;;;;;;;2.08;1.80;;;;;;;;;;10240863;29;20031;-67
2023/11/22 17:01:49;;;;;;;5.90;1.83;;;;;;;;;;10239969;29;20041;-61
2023/11/22 17:06:49;;;;;;;2.53;1.80;;;;;;;;;;10243159;29;20047;-61
2023/11/22 17:11:50;;;;;;;9.80;2.33;;;;;;;;;;10243096;28;20110;-61
2023/11/22 17:16:51;;;;;;;4.35;1.92;;;;;;;;;;10246850;28;20025;-61
2023/11/22 17:21:51;;;;;;;4.65;2.20;;;;;;;;;;10243373;28;20027;-62
2023/11/22 17:26:52;;;;;;;6.60;2.50;;;;;;;;;;10242460;29;20066;-61
2023/11/22 17:31:53;;;;;;;3.20;1.85;;;;;;;;;;10237973;28;20039;-61
2023/11/22 17:36:53;;;;;;;4.85;2.28;;;;;;;;;;10244105;28;20038;-61
2023/11/22 17:41:56;;;;;;;2.53;1.90;;;;;;;;;;10245658;28;20542;-63
2023/11/22 17:46:57;;;;;;;3.65;2.30;;;;;;;;;;10253371;28;20035;-61
2023/11/22 17:51:58;;;;;;;8.38;2.15;;;;;;;;;;10242653;28;20126;-61
2023/11/22 17:56:59;;;;;;;8.35;3.08;;;;;;;;;;10236324;29;20035;-60
2023/11/22 18:01:59;;;;;;;6.50;2.47;;;;;;;;;;10239904;28;20031;-65
2023/11/22 18:07:00;;;;;;;4.22;2.60;;;;;;;;;;10242270;28;20492;-64
2023/11/22 18:12:02;;;;;;;2.88;2.20;;;;;;;;;;10245205;28;20027;-64
2023/11/22 18:17:03;;;;;;;3.25;2.35;;;;;;;;;;10238145;28;20510;-60
2023/11/22 18:22:03;;;;;;;4.07;2.67;;;;;;;;;;10240285;28;20538;-61
2023/11/22 18:27:04;;;;;;;4.22;2.47;;;;;;;;;;10243479;28;21555;-61
2023/11/22 18:32:06;;;;;;;5.30;2.72;;;;;;;;;;10258539;28;20043;-61
2023/11/22 18:37:07;;;;;;;4.38;2.67;;;;;;;;;;10242848;28;20040;-61
2023/11/22 18:42:08;;;;;;;6.78;3.25;;;;;;;;;;10242593;28;20455;-61
2023/11/22 18:47:09;;;;;;;6.85;3.40;;;;;;;;;;10243256;28;20035;-61
2023/11/22 18:52:10;;;;;;;3.92;3.13;;;;;;;;;;10242403;28;20047;-61
2023/11/22 18:57:11;;;;;;;7.15;3.00;;;;;;;;;;10239362;28;20050;-61
2023/11/22 19:02:12;;;;;;;8.35;3.45;;;;;;;;;;10251230;28;20032;-61
2023/11/22 19:07:14;;;;;;;4.75;2.85;;;;;;;;;;10245259;28;20062;-61
2023/11/22 19:12:17;;;;;;;5.90;3.35;;;;;;;;;;10251275;28;20038;-61
2023/11/22 19:17:22;;;;;;;5.30;3.63;;;;;;;;;;10241219;28;20042;-61
2023/11/22 19:22:22;;;;;;;4.03;3.00;;;;;;;;;;10256646;28;20066;-61
2023/11/22 19:27:23;;;;;;;4.80;3.40;;;;;;;;;;10253787;28;20039;-67
2023/11/22 19:32:23;;;;;;;5.57;3.05;;;;;;;;;;10249279;28;20525;-61
2023/11/22 19:37:27;;;;;;;5.85;3.30;;;;;;;;;;10253330;28;20475;-61
2023/11/22 19:42:29;;;;;;;4.60;3.15;;;;;;;;;;10247128;28;20035;-61
2023/11/22 19:47:30;;;;;;;5.03;3.17;;;;;;;;;;10243713;28;20318;-60
2023/11/22 19:52:31;;;;;;;7.55;3.90;;;;;;;;;;10249301;28;20047;-60
2023/11/22 19:57:35;;;;;;;8.73;3.60;;;;;;;;;;10245508;29;20546;-61
2023/11/22 20:02:36;;;;;;;4.60;3.42;;;;;;;;;;10248994;28;20038;-60
2023/11/22 20:07:48;;;;;;;4.82;2.97;;;;;;;;;;10251860;28;20023;-61
2023/11/22 20:12:49;;;;;;;7.15;3.30;;;;;;;;;;10244031;28;20050;-61
2023/11/22 20:17:49;;;;;;;5.82;3.25;;;;;;;;;;10242309;28;20019;-61
2023/11/22 20:22:50;;;;;;;6.35;3.63;;;;;;;;;;10254380;28;20110;-60
2023/11/22 20:27:51;;;;;;;5.20;3.42;;;;;;;;;;10246684;28;20030;-60
2023/11/22 20:32:52;;;;;;;7.55;3.60;;;;;;;;;;10248938;28;20479;-61
2023/11/22 20:37:52;;;;;;;23.00;4.10;;;;;;;;;;10236760;28;20048;-61
2023/11/22 20:42:53;;;;;;;23.90;6.88;;;;;;;;;;10246090;28;20309;-61
2023/11/22 20:47:54;;;;;;;18.23;5.68;;;;;;;;;;10257225;28;20048;-60
2023/11/22 20:52:55;;;;;;;17.30;5.78;;;;;;;;;;10245826;28;20615;-60
2023/11/22 20:57:57;;;;;;;17.50;5.18;;;;;;;;;;10250935;28;20035;-60
2023/11/22 21:02:57;;;;;;;15.15;5.90;;;;;;;;;;10247279;28;20267;-64
2023/11/22 21:07:58;;;;;;;17.15;4.93;;;;;;;;;;10253336;28;20187;-60
2023/11/22 21:12:58;;;;;;;15.93;5.05;;;;;;;;;;10245116;28;20057;-60
2023/11/22 21:18:00;;;;;;;16.88;5.75;;;;;;;;;;10222460;28;20069;-65
2023/11/22 21:23:00;;;;;;;13.55;5.45;;;;;;;;;;10240454;28;20542;-60
2023/11/22 21:28:02;;;;;;;13.98;5.72;;;;;;;;;;10243022;28;20031;-60
2023/11/22 21:33:03;;;;;;;21.45;11.68;;;;;;;;;;10241862;29;20045;-61
2023/11/22 21:38:04;;;;;;;26.45;11.20;;;;;;;;;;10244242;28;20410;-63
2023/11/22 21:43:05;;;;;;;15.55;9.60;;;;;;;;;;10237406;28;20279;-61
2023/11/22 21:48:06;;;;;;;20.27;9.18;;;;;;;;;;10243128;28;20282;-62
2023/11/22 21:53:06;;;;;;;23.55;9.18;;;;;;;;;;10235238;28;20054;-60
2023/11/22 21:58:07;;;;;;;18.83;7.68;;;;;;;;;;10219886;28;20034;-61
2023/11/22 22:03:08;;;;;;;23.50;7.20;;;;;;;;;;10227636;28;20106;-62
2023/11/22 22:08:09;;;;;;;33.38;9.05;;;;;;;;;;10240588;28;20432;-59
2023/11/22 22:13:12;;;;;;;17.98;7.82;;;;;;;;;;10240801;28;20031;-60
2023/11/22 22:18:13;;;;;;;22.95;7.43;;;;;;;;;;10239049;28;20039;-60
2023/11/22 22:23:16;;;;;;;17.42;7.10;;;;;;;;;;10241944;28;20035;-61
2023/11/22 22:28:17;;;;;;;15.38;6.40;;;;;;;;;;10233682;28;20038;-60
2023/11/22 22:33:17;;;;;;;21.35;7.13;;;;;;;;;;10236536;28;20049;-62
2023/11/22 22:38:18;;;;;;;14.30;6.55;;;;;;;;;;10234534;28;20533;-69
2023/11/22 22:43:19;;;;;;;26.85;6.93;;;;;;;;;;10240593;28;20479;-63
2023/11/22 22:48:19;;;;;;;15.73;7.30;;;;;;;;;;10242560;28;20541;-61
2023/11/22 22:53:20;;;;;;;13.93;7.25;;;;;;;;;;10246314;28;20051;-61
2023/11/22 22:58:20;;;;;;;18.30;8.13;;;;;;;;;;10238855;28;20062;-61
2023/11/22 23:03:22;;;;;;;13.88;7.13;;;;;;;;;;10247458;29;20069;-60
2023/11/22 23:08:23;;;;;;;15.73;6.97;;;;;;;;;;10236208;28;20026;-61
2023/11/22 23:13:23;;;;;;;13.93;7.55;;;;;;;;;;10237706;28;20039;-61
2023/11/22 23:18:25;;;;;;;17.60;7.82;;;;;;;;;;10227968;28;20058;-61
2023/11/22 23:23:25;;;;;;;15.38;6.70;;;;;;;;;;10243958;29;20150;-62
2023/11/22 23:28:26;;;;;;;11.43;6.47;;;;;;;;;;10242506;28;20541;-64
2023/11/22 23:33:26;;;;;;;10.93;6.82;;;;;;;;;;10243501;29;20491;-65
2023/11/22 23:38:27;;;;;;;10.45;7.20;;;;;;;;;;10247431;28;20031;-62
2023/11/22 23:43:34;;;;;;;17.48;6.82;;;;;;;;;;10252726;28;20043;-64
2023/11/22 23:48:34;;;;;;;11.68;6.78;;;;;;;;;;10255260;28;20066;-65
2023/11/22 23:53:36;;;;;;;12.73;6.68;;;;;;;;;;10244238;28;20078;-65
2023/11/22 23:58:39;;;;;;;13.93;6.55;;;;;;;;;;10249246;28;20427;-63
